sensor_id;sensor_type;location;lat;lon;timestamp;pressure;altitude;pressure_sealevel;temperature
22828;BMP180;11580;52.562;13.418;2023-01-15T00:01:25;98800.00;;;13.90
22828;BMP180;11580;52.562;13.418;2023-01-15T00:03:55;98776.00;;;13.90
22828;BMP180;11580;52.562;13.418;2023-01-15T00:06:25;98804.00;;;13.90
22828;BMP180;11580;52.562;13.418;2023-01-15T00:08:53;98788.00;;;13.90
22828;BMP180;11580;52.562;13.418;2023-01-15T00:11:21;98813.00;;;14.00
22828;BMP180;11580;52.562;13.418;2023-01-15T00:13:49;98794.00;;;14.00
22828;BMP180;11580;52.562;13.418;2023-01-15T00:16:20;98805.00;;;14.00
22828;BMP180;11580;52.562;13.418;2023-01-15T00:18:53;98794.00;;;14.00
22828;BMP180;11580;52.562;13.418;2023-01-15T00:21:22;98805.00;;;14.10
22828;BMP180;11580;52.562;13.418;2023-01-15T00:23:50;98809.00;;;14.10
22828;BMP180;11580;52.562;13.418;2023-01-15T00:26:36;98788.00;;;14.10
22828;BMP180;11580;52.562;13.418;2023-01-15T00:29:22;98792.00;;;14.10
22828;BMP180;11580;52.562;13.418;2023-01-15T00:31:56;98775.00;;;14.10
22828;BMP180;11580;52.562;13.418;2023-01-15T00:34:25;98775.00;;;14.20
22828;BMP180;11580;52.562;13.418;2023-01-15T00:36:53;98769.00;;;14.20
22828;BMP180;11580;52.562;13.418;2023-01-15T00:39:20;98761.00;;;14.20
22828;BMP180;11580;52.562;13.418;2023-01-15T00:41:49;98760.00;;;14.20
22828;BMP180;11580;52.562;13.418;2023-01-15T00:44:17;98750.00;;;14.20
22828;BMP180;11580;52.562;13.418;2023-01-15T00:46:45;98739.00;;;14.20
22828;BMP180;11580;52.562;13.418;2023-01-15T00:49:12;98744.00;;;14.20
22828;BMP180;11580;52.562;13.418;2023-01-15T00:51:41;98742.00;;;14.30
22828;BMP180;11580;52.562;13.418;2023-01-15T00:54:08;98755.00;;;14.30
22828;BMP180;11580;52.562;13.418;2023-01-15T00:56:36;98748.00;;;14.30
22828;BMP180;11580;52.562;13.418;2023-01-15T00:59:04;98751.00;;;14.30
22828;BMP180;11580;52.562;13.418;2023-01-15T01:01:32;98747.00;;;14.30
22828;BMP180;11580;52.562;13.418;2023-01-15T01:04:00;98737.00;;;14.30
22828;BMP180;11580;52.562;13.418;2023-01-15T01:06:27;98743.00;;;14.30
22828;BMP180;11580;52.562;13.418;2023-01-15T01:08:56;98741.00;;;14.30
22828;BMP180;11580;52.562;13.418;2023-01-15T01:11:24;98723.00;;;14.30
22828;BMP180;11580;52.562;13.418;2023-01-15T01:13:54;98740.00;;;14.20
22828;BMP180;11580;52.562;13.418;2023-01-15T01:16:25;98734.00;;;14.30
22828;BMP180;11580;52.562;13.418;2023-01-15T01:18:56;98752.00;;;14.20
22828;BMP180;11580;52.562;13.418;2023-01-15T01:21:25;98738.00;;;14.20
22828;BMP180;11580;52.562;13.418;2023-01-15T01:23:53;98731.00;;;14.20
22828;BMP180;11580;52.562;13.418;2023-01-15T01:26:22;98742.00;;;14.30
22828;BMP180;11580;52.562;13.418;2023-01-15T01:28:50;98737.00;;;14.30
22828;BMP180;11580;52.562;13.418;2023-01-15T01:31:19;98741.00;;;14.30
22828;BMP180;11580;52.562;13.418;2023-01-15T01:33:48;98746.00;;;14.30
22828;BMP180;11580;52.562;13.418;2023-01-15T01:36:15;98759.00;;;14.40
22828;BMP180;11580;52.562;13.418;2023-01-15T01:38:43;98744.00;;;14.40
22828;BMP180;11580;52.562;13.418;2023-01-15T01:41:14;98736.00;;;14.40
22828;BMP180;11580;52.562;13.418;2023-01-15T01:43:56;98734.00;;;14.40
22828;BMP180;11580;52.562;13.418;2023-01-15T01:46:25;98715.00;;;14.50
22828;BMP180;11580;52.562;13.418;2023-01-15T01:48:58;98711.00;;;14.50
22828;BMP180;11580;52.562;13.418;2023-01-15T01:51:32;98723.00;;;14.50
22828;BMP180;11580;52.562;13.418;2023-01-15T01:54:01;98722.00;;;14.50
22828;BMP180;11580;52.562;13.418;2023-01-15T01:56:33;98730.00;;;14.50
22828;BMP180;11580;52.562;13.418;2023-01-15T01:59:04;98728.00;;;14.60
22828;BMP180;11580;52.562;13.418;2023-01-15T02:01:33;98734.00;;;14.60
22828;BMP180;11580;52.562;13.418;2023-01-15T02:04:01;98730.00;;;14.60
22828;BMP180;11580;52.562;13.418;2023-01-15T02:06:31;98726.00;;;14.60
22828;BMP180;11580;52.562;13.418;2023-01-15T02:08:58;98727.00;;;14.60
22828;BMP180;11580;52.562;13.418;2023-01-15T02:11:28;98722.00;;;14.60
22828;BMP180;11580;52.562;13.418;2023-01-15T02:14:07;98729.00;;;14.60
22828;BMP180;11580;52.562;13.418;2023-01-15T02:16:42;98727.00;;;14.60
22828;BMP180;11580;52.562;13.418;2023-01-15T02:19:21;98714.00;;;14.60
22828;BMP180;11580;52.562;13.418;2023-01-15T02:22:00;98721.00;;;14.60
22828;BMP180;11580;52.562;13.418;2023-01-15T02:24:40;98710.00;;;14.60
22828;BMP180;11580;52.562;13.418;2023-01-15T02:27:15;98717.00;;;14.60
22828;BMP180;11580;52.562;13.418;2023-01-15T02:29:55;98728.00;;;14.60
22828;BMP180;11580;52.562;13.418;2023-01-15T02:32:33;98729.00;;;14.60
22828;BMP180;11580;52.562;13.418;2023-01-15T02:35:06;98723.00;;;14.60
22828;BMP180;11580;52.562;13.418;2023-01-15T02:37:41;98725.00;;;14.50
22828;BMP180;11580;52.562;13.418;2023-01-15T02:40:33;98718.00;;;14.50
22828;BMP180;11580;52.562;13.418;2023-01-15T02:43:04;98718.00;;;14.50
22828;BMP180;11580;52.562;13.418;2023-01-15T02:45:36;98713.00;;;14.50
22828;BMP180;11580;52.562;13.418;2023-01-15T02:48:13;98706.00;;;14.50
22828;BMP180;11580;52.562;13.418;2023-01-15T02:50:47;98706.00;;;14.50
22828;BMP180;11580;52.562;13.418;2023-01-15T02:53:23;98698.00;;;14.50
22828;BMP180;11580;52.562;13.418;2023-01-15T02:56:00;98703.00;;;14.40
22828;BMP180;11580;52.562;13.418;2023-01-15T02:58:39;98686.00;;;14.40
22828;BMP180;11580;52.562;13.418;2023-01-15T03:01:16;98703.00;;;14.40
22828;BMP180;11580;52.562;13.418;2023-01-15T03:03:52;98701.00;;;14.40
22828;BMP180;11580;52.562;13.418;2023-01-15T03:06:32;98715.00;;;14.40
22828;BMP180;11580;52.562;13.418;2023-01-15T03:09:04;98711.00;;;14.40
22828;BMP180;11580;52.562;13.418;2023-01-15T03:11:36;98712.00;;;14.40
22828;BMP180;11580;52.562;13.418;2023-01-15T03:14:14;98715.00;;;14.40
22828;BMP180;11580;52.562;13.418;2023-01-15T03:16:46;98705.00;;;14.40
22828;BMP180;11580;52.562;13.418;2023-01-15T03:19:23;98705.00;;;14.40
22828;BMP180;11580;52.562;13.418;2023-01-15T03:21:58;98699.00;;;14.40
22828;BMP180;11580;52.562;13.418;2023-01-15T03:24:34;98696.00;;;14.40
22828;BMP180;11580;52.562;13.418;2023-01-15T03:27:03;98697.00;;;14.40
22828;BMP180;11580;52.562;13.418;2023-01-15T03:29:38;98700.00;;;14.40
22828;BMP180;11580;52.562;13.418;2023-01-15T03:32:06;98698.00;;;14.40
22828;BMP180;11580;52.562;13.418;2023-01-15T03:34:42;98702.00;;;14.40
22828;BMP180;11580;52.562;13.418;2023-01-15T03:37:11;98705.00;;;14.40
22828;BMP180;11580;52.562;13.418;2023-01-15T03:39:41;98710.00;;;14.40
22828;BMP180;11580;52.562;13.418;2023-01-15T03:42:34;98702.00;;;14.40
22828;BMP180;11580;52.562;13.418;2023-01-15T03:45:11;98713.00;;;14.40
22828;BMP180;11580;52.562;13.418;2023-01-15T03:47:55;98710.00;;;14.40
22828;BMP180;11580;52.562;13.418;2023-01-15T03:50:31;98717.00;;;14.40
22828;BMP180;11580;52.562;13.418;2023-01-15T03:53:10;98727.00;;;14.40
22828;BMP180;11580;52.562;13.418;2023-01-15T03:55:53;98710.00;;;14.40
22828;BMP180;11580;52.562;13.418;2023-01-15T03:58:28;98714.00;;;14.40
22828;BMP180;11580;52.562;13.418;2023-01-15T04:01:02;98713.00;;;14.40
22828;BMP180;11580;52.562;13.418;2023-01-15T04:03:33;98720.00;;;14.40
22828;BMP180;11580;52.562;13.418;2023-01-15T04:06:04;98749.00;;;14.40
22828;BMP180;11580;52.562;13.418;2023-01-15T04:08:38;98767.00;;;14.30
22828;BMP180;11580;52.562;13.418;2023-01-15T04:11:06;98791.00;;;14.20
22828;BMP180;11580;52.562;13.418;2023-01-15T04:13:40;98778.00;;;14.10
22828;BMP180;11580;52.562;13.418;2023-01-15T04:16:27;98797.00;;;13.90
22828;BMP180;11580;52.562;13.418;2023-01-15T04:18:54;98804.00;;;13.80
22828;BMP180;11580;52.562;13.418;2023-01-15T04:21:24;98816.00;;;13.60
22828;BMP180;11580;52.562;13.418;2023-01-15T04:23:52;98825.00;;;13.40
22828;BMP180;11580;52.562;13.418;2023-01-15T04:26:19;98830.00;;;13.10
22828;BMP180;11580;52.562;13.418;2023-01-15T04:28:46;98852.00;;;12.90
22828;BMP180;11580;52.562;13.418;2023-01-15T04:31:14;98863.00;;;12.60
22828;BMP180;11580;52.562;13.418;2023-01-15T04:33:43;98834.00;;;12.40
22828;BMP180;11580;52.562;13.418;2023-01-15T04:36:10;98846.00;;;12.20
22828;BMP180;11580;52.562;13.418;2023-01-15T04:38:39;98829.00;;;12.00
22828;BMP180;11580;52.562;13.418;2023-01-15T04:41:06;98832.00;;;11.80
22828;BMP180;11580;52.562;13.418;2023-01-15T04:43:51;98857.00;;;11.70
22828;BMP180;11580;52.562;13.418;2023-01-15T04:46:35;98860.00;;;11.40
22828;BMP180;11580;52.562;13.418;2023-01-15T04:49:08;98849.00;;;11.30
22828;BMP180;11580;52.562;13.418;2023-01-15T04:51:35;98858.00;;;11.20
22828;BMP180;11580;52.562;13.418;2023-01-15T04:54:05;98865.00;;;11.10
22828;BMP180;11580;52.562;13.418;2023-01-15T04:56:38;98861.00;;;10.90
22828;BMP180;11580;52.562;13.418;2023-01-15T04:59:07;98849.00;;;10.90
22828;BMP180;11580;52.562;13.418;2023-01-15T05:01:34;98850.00;;;10.80
22828;BMP180;11580;52.562;13.418;2023-01-15T05:04:04;98840.00;;;10.80
22828;BMP180;11580;52.562;13.418;2023-01-15T05:06:31;98847.00;;;10.80
22828;BMP180;11580;52.562;13.418;2023-01-15T05:08:59;98864.00;;;10.70
22828;BMP180;11580;52.562;13.418;2023-01-15T05:11:27;98836.00;;;10.70
22828;BMP180;11580;52.562;13.418;2023-01-15T05:13:55;98846.00;;;10.70
22828;BMP180;11580;52.562;13.418;2023-01-15T05:16:25;98854.00;;;10.70
22828;BMP180;11580;52.562;13.418;2023-01-15T05:18:56;98849.00;;;10.70
22828;BMP180;11580;52.562;13.418;2023-01-15T05:21:27;98854.00;;;10.70
22828;BMP180;11580;52.562;13.418;2023-01-15T05:23:58;98844.00;;;10.80
22828;BMP180;11580;52.562;13.418;2023-01-15T05:26:28;98838.00;;;10.80
22828;BMP180;11580;52.562;13.418;2023-01-15T05:28:58;98847.00;;;10.80
22828;BMP180;11580;52.562;13.418;2023-01-15T05:31:28;98843.00;;;10.80
22828;BMP180;11580;52.562;13.418;2023-01-15T05:33:56;98852.00;;;10.80
22828;BMP180;11580;52.562;13.418;2023-01-15T05:36:28;98851.00;;;10.90
22828;BMP180;11580;52.562;13.418;2023-01-15T05:38:56;98852.00;;;10.90
22828;BMP180;11580;52.562;13.418;2023-01-15T05:41:27;98856.00;;;10.90
22828;BMP180;11580;52.562;13.418;2023-01-15T05:44:13;98841.00;;;10.90
22828;BMP180;11580;52.562;13.418;2023-01-15T05:46:42;98857.00;;;10.90
22828;BMP180;11580;52.562;13.418;2023-01-15T05:49:14;98856.00;;;11.00
22828;BMP180;11580;52.562;13.418;2023-01-15T05:51:44;98856.00;;;11.00
22828;BMP180;11580;52.562;13.418;2023-01-15T05:54:15;98856.00;;;11.00
22828;BMP180;11580;52.562;13.418;2023-01-15T05:56:43;98848.00;;;11.00
22828;BMP180;11580;52.562;13.418;2023-01-15T05:59:12;98852.00;;;11.10
22828;BMP180;11580;52.562;13.418;2023-01-15T06:01:39;98837.00;;;11.10
22828;BMP180;11580;52.562;13.418;2023-01-15T06:04:07;98836.00;;;11.20
22828;BMP180;11580;52.562;13.418;2023-01-15T06:06:34;98828.00;;;11.20
22828;BMP180;11580;52.562;13.418;2023-01-15T06:09:04;98844.00;;;11.30
22828;BMP180;11580;52.562;13.418;2023-01-15T06:11:31;98838.00;;;11.30
22828;BMP180;11580;52.562;13.418;2023-01-15T06:13:59;98835.00;;;11.30
22828;BMP180;11580;52.562;13.418;2023-01-15T06:16:26;98822.00;;;11.40
22828;BMP180;11580;52.562;13.418;2023-01-15T06:18:53;98826.00;;;11.40
22828;BMP180;11580;52.562;13.418;2023-01-15T06:21:21;98830.00;;;11.50
22828;BMP180;11580;52.562;13.418;2023-01-15T06:23:48;98829.00;;;11.50
22828;BMP180;11580;52.562;13.418;2023-01-15T06:26:17;98817.00;;;11.50
22828;BMP180;11580;52.562;13.418;2023-01-15T06:28:45;98830.00;;;11.60
22828;BMP180;11580;52.562;13.418;2023-01-15T06:31:14;98810.00;;;11.60
22828;BMP180;11580;52.562;13.418;2023-01-15T06:33:42;98825.00;;;11.60
22828;BMP180;11580;52.562;13.418;2023-01-15T06:36:13;98834.00;;;11.70
22828;BMP180;11580;52.562;13.418;2023-01-15T06:38:41;98846.00;;;11.70
22828;BMP180;11580;52.562;13.418;2023-01-15T06:41:13;98847.00;;;11.70
22828;BMP180;11580;52.562;13.418;2023-01-15T06:44:00;98848.00;;;11.70
22828;BMP180;11580;52.562;13.418;2023-01-15T06:46:46;98850.00;;;11.70
22828;BMP180;11580;52.562;13.418;2023-01-15T06:49:33;98843.00;;;11.70
22828;BMP180;11580;52.562;13.418;2023-01-15T06:52:01;98857.00;;;11.80
22828;BMP180;11580;52.562;13.418;2023-01-15T06:54:28;98849.00;;;11.80
22828;BMP180;11580;52.562;13.418;2023-01-15T06:56:55;98856.00;;;11.80
22828;BMP180;11580;52.562;13.418;2023-01-15T06:59:24;98860.00;;;11.80
22828;BMP180;11580;52.562;13.418;2023-01-15T07:01:51;98859.00;;;11.80
22828;BMP180;11580;52.562;13.418;2023-01-15T07:04:18;98859.00;;;11.80
22828;BMP180;11580;52.562;13.418;2023-01-15T07:06:46;98858.00;;;11.80
22828;BMP180;11580;52.562;13.418;2023-01-15T07:09:13;98868.00;;;11.90
22828;BMP180;11580;52.562;13.418;2023-01-15T07:11:40;98873.00;;;11.90
22828;BMP180;11580;52.562;13.418;2023-01-15T07:14:16;98884.00;;;11.90
22828;BMP180;11580;52.562;13.418;2023-01-15T07:16:45;98860.00;;;11.90
22828;BMP180;11580;52.562;13.418;2023-01-15T07:19:13;98880.00;;;11.90
22828;BMP180;11580;52.562;13.418;2023-01-15T07:21:41;98878.00;;;11.90
22828;BMP180;11580;52.562;13.418;2023-01-15T07:24:09;98869.00;;;11.90
22828;BMP180;11580;52.562;13.418;2023-01-15T07:26:37;98860.00;;;11.90
22828;BMP180;11580;52.562;13.418;2023-01-15T07:29:05;98862.00;;;11.90
22828;BMP180;11580;52.562;13.418;2023-01-15T07:31:32;98865.00;;;11.80
22828;BMP180;11580;52.562;13.418;2023-01-15T07:34:01;98862.00;;;11.80
22828;BMP180;11580;52.562;13.418;2023-01-15T07:36:29;98876.00;;;11.90
22828;BMP180;11580;52.562;13.418;2023-01-15T07:38:56;98876.00;;;11.90
22828;BMP180;11580;52.562;13.418;2023-01-15T07:41:23;98885.00;;;11.90
22828;BMP180;11580;52.562;13.418;2023-01-15T07:44:10;98891.00;;;11.90
22828;BMP180;11580;52.562;13.418;2023-01-15T07:46:56;98869.00;;;11.90
22828;BMP180;11580;52.562;13.418;2023-01-15T07:49:43;98873.00;;;11.90
22828;BMP180;11580;52.562;13.418;2023-01-15T07:52:16;98896.00;;;11.90
22828;BMP180;11580;52.562;13.418;2023-01-15T07:54:45;98906.00;;;11.90
22828;BMP180;11580;52.562;13.418;2023-01-15T07:57:15;98913.00;;;11.90
22828;BMP180;11580;52.562;13.418;2023-01-15T07:59:42;98881.00;;;11.90
22828;BMP180;11580;52.562;13.418;2023-01-15T08:02:09;98881.00;;;11.90
22828;BMP180;11580;52.562;13.418;2023-01-15T08:04:37;98905.00;;;11.90
22828;BMP180;11580;52.562;13.418;2023-01-15T08:07:06;98898.00;;;11.90
22828;BMP180;11580;52.562;13.418;2023-01-15T08:09:34;98911.00;;;11.90
22828;BMP180;11580;52.562;13.418;2023-01-15T08:12:02;98912.00;;;11.90
22828;BMP180;11580;52.562;13.418;2023-01-15T08:14:47;98896.00;;;11.90
22828;BMP180;11580;52.562;13.418;2023-01-15T08:17:33;98891.00;;;11.90
22828;BMP180;11580;52.562;13.418;2023-01-15T08:20:00;98889.00;;;11.90
22828;BMP180;11580;52.562;13.418;2023-01-15T08:22:30;98876.00;;;11.90
22828;BMP180;11580;52.562;13.418;2023-01-15T08:24:57;98848.00;;;11.90
22828;BMP180;11580;52.562;13.418;2023-01-15T08:27:24;98879.00;;;11.90
22828;BMP180;11580;52.562;13.418;2023-01-15T08:29:51;98884.00;;;12.00
22828;BMP180;11580;52.562;13.418;2023-01-15T08:32:19;98893.00;;;12.00
22828;BMP180;11580;52.562;13.418;2023-01-15T08:34:46;98892.00;;;12.00
22828;BMP180;11580;52.562;13.418;2023-01-15T08:37:13;98900.00;;;12.00
22828;BMP180;11580;52.562;13.418;2023-01-15T08:39:42;98902.00;;;12.00
22828;BMP180;11580;52.562;13.418;2023-01-15T08:42:09;98900.00;;;12.00
22828;BMP180;11580;52.562;13.418;2023-01-15T08:44:36;98907.00;;;12.00
22828;BMP180;11580;52.562;13.418;2023-01-15T08:47:03;98908.00;;;12.10
22828;BMP180;11580;52.562;13.418;2023-01-15T08:49:30;98912.00;;;12.10
22828;BMP180;11580;52.562;13.418;2023-01-15T08:51:58;98904.00;;;12.10
22828;BMP180;11580;52.562;13.418;2023-01-15T08:54:25;98914.00;;;12.20
22828;BMP180;11580;52.562;13.418;2023-01-15T08:56:54;98906.00;;;12.20
22828;BMP180;11580;52.562;13.418;2023-01-15T08:59:21;98904.00;;;12.20
22828;BMP180;11580;52.562;13.418;2023-01-15T09:01:49;98895.00;;;12.20
22828;BMP180;11580;52.562;13.418;2023-01-15T09:04:19;98903.00;;;12.30
22828;BMP180;11580;52.562;13.418;2023-01-15T09:06:48;98921.00;;;12.30
22828;BMP180;11580;52.562;13.418;2023-01-15T09:09:15;98921.00;;;12.40
22828;BMP180;11580;52.562;13.418;2023-01-15T09:11:44;98921.00;;;12.40
22828;BMP180;11580;52.562;13.418;2023-01-15T09:14:14;98929.00;;;12.40
22828;BMP180;11580;52.562;13.418;2023-01-15T09:16:41;98932.00;;;12.50
22828;BMP180;11580;52.562;13.418;2023-01-15T09:19:09;98928.00;;;12.50
22828;BMP180;11580;52.562;13.418;2023-01-15T09:21:36;98934.00;;;12.50
22828;BMP180;11580;52.562;13.418;2023-01-15T09:24:05;98940.00;;;12.50
22828;BMP180;11580;52.562;13.418;2023-01-15T09:26:35;98930.00;;;12.50
22828;BMP180;11580;52.562;13.418;2023-01-15T09:29:04;98922.00;;;12.60
22828;BMP180;11580;52.562;13.418;2023-01-15T09:31:33;98936.00;;;12.60
22828;BMP180;11580;52.562;13.418;2023-01-15T09:34:00;98937.00;;;12.60
22828;BMP180;11580;52.562;13.418;2023-01-15T09:36:30;98935.00;;;12.70
22828;BMP180;11580;52.562;13.418;2023-01-15T09:38:59;98938.00;;;12.70
22828;BMP180;11580;52.562;13.418;2023-01-15T09:41:44;98933.00;;;12.70
22828;BMP180;11580;52.562;13.418;2023-01-15T09:44:53;98938.00;;;12.80
22828;BMP180;11580;52.562;13.418;2023-01-15T09:47:33;98942.00;;;12.80
22828;BMP180;11580;52.562;13.418;2023-01-15T09:50:22;98943.00;;;12.80
22828;BMP180;11580;52.562;13.418;2023-01-15T09:53:16;98960.00;;;12.80
22828;BMP180;11580;52.562;13.418;2023-01-15T09:55:48;98948.00;;;12.80
22828;BMP180;11580;52.562;13.418;2023-01-15T09:58:20;98946.00;;;12.90
22828;BMP180;11580;52.562;13.418;2023-01-15T10:00:50;98947.00;;;12.90
22828;BMP180;11580;52.562;13.418;2023-01-15T10:03:30;98946.00;;;12.90
22828;BMP180;11580;52.562;13.418;2023-01-15T10:06:09;98947.00;;;13.00
22828;BMP180;11580;52.562;13.418;2023-01-15T10:08:42;98955.00;;;13.00
22828;BMP180;11580;52.562;13.418;2023-01-15T10:11:35;98937.00;;;13.00
22828;BMP180;11580;52.562;13.418;2023-01-15T10:14:34;98934.00;;;13.00
22828;BMP180;11580;52.562;13.418;2023-01-15T10:17:18;98934.00;;;13.10
22828;BMP180;11580;52.562;13.418;2023-01-15T10:19:48;98944.00;;;13.10
22828;BMP180;11580;52.562;13.418;2023-01-15T10:22:39;98945.00;;;13.10
22828;BMP180;11580;52.562;13.418;2023-01-15T10:25:16;98941.00;;;13.10
22828;BMP180;11580;52.562;13.418;2023-01-15T10:27:50;98936.00;;;13.20
22828;BMP180;11580;52.562;13.418;2023-01-15T10:30:29;98939.00;;;13.20
22828;BMP180;11580;52.562;13.418;2023-01-15T10:33:13;98934.00;;;13.20
22828;BMP180;11580;52.562;13.418;2023-01-15T10:35:54;98941.00;;;13.30
22828;BMP180;11580;52.562;13.418;2023-01-15T10:38:31;98920.00;;;13.40
22828;BMP180;11580;52.562;13.418;2023-01-15T10:41:30;98933.00;;;13.40
22828;BMP180;11580;52.562;13.418;2023-01-15T10:44:13;98938.00;;;13.40
22828;BMP180;11580;52.562;13.418;2023-01-15T10:46:54;98950.00;;;13.50
22828;BMP180;11580;52.562;13.418;2023-01-15T10:49:27;98942.00;;;13.50
22828;BMP180;11580;52.562;13.418;2023-01-15T10:52:03;98947.00;;;13.60
22828;BMP180;11580;52.562;13.418;2023-01-15T10:54:37;98949.00;;;13.60
22828;BMP180;11580;52.562;13.418;2023-01-15T10:57:13;98931.00;;;13.60
22828;BMP180;11580;52.562;13.418;2023-01-15T10:59:46;98946.00;;;13.60
22828;BMP180;11580;52.562;13.418;2023-01-15T11:02:24;98947.00;;;13.70
22828;BMP180;11580;52.562;13.418;2023-01-15T11:04:54;98956.00;;;13.70
22828;BMP180;11580;52.562;13.418;2023-01-15T11:07:34;98955.00;;;13.80
22828;BMP180;11580;52.562;13.418;2023-01-15T11:10:07;98968.00;;;13.90
22828;BMP180;11580;52.562;13.418;2023-01-15T11:12:36;98963.00;;;13.90
22828;BMP180;11580;52.562;13.418;2023-01-15T11:15:25;98962.00;;;13.90
22828;BMP180;11580;52.562;13.418;2023-01-15T11:18:17;98963.00;;;14.00
22828;BMP180;11580;52.562;13.418;2023-01-15T11:21:11;98965.00;;;14.00
22828;BMP180;11580;52.562;13.418;2023-01-15T11:23:40;98962.00;;;13.90
22828;BMP180;11580;52.562;13.418;2023-01-15T11:26:09;98955.00;;;13.90
22828;BMP180;11580;52.562;13.418;2023-01-15T11:28:42;98945.00;;;13.90
22828;BMP180;11580;52.562;13.418;2023-01-15T11:31:12;98943.00;;;13.90
22828;BMP180;11580;52.562;13.418;2023-01-15T11:33:58;98956.00;;;13.90
22828;BMP180;11580;52.562;13.418;2023-01-15T11:36:27;98958.00;;;13.80
22828;BMP180;11580;52.562;13.418;2023-01-15T11:38:57;98960.00;;;13.80
22828;BMP180;11580;52.562;13.418;2023-01-15T11:41:29;98958.00;;;13.80
22828;BMP180;11580;52.562;13.418;2023-01-15T11:44:19;98950.00;;;13.80
22828;BMP180;11580;52.562;13.418;2023-01-15T11:47:10;98955.00;;;13.80
22828;BMP180;11580;52.562;13.418;2023-01-15T11:49:55;98958.00;;;13.80
22828;BMP180;11580;52.562;13.418;2023-01-15T11:52:45;98950.00;;;13.80
22828;BMP180;11580;52.562;13.418;2023-01-15T11:55:19;98935.00;;;13.80
22828;BMP180;11580;52.562;13.418;2023-01-15T11:57:48;98940.00;;;13.80
22828;BMP180;11580;52.562;13.418;2023-01-15T12:00:21;98947.00;;;13.80
22828;BMP180;11580;52.562;13.418;2023-01-15T12:02:52;98949.00;;;13.80
22828;BMP180;11580;52.562;13.418;2023-01-15T12:05:25;98948.00;;;13.80
22828;BMP180;11580;52.562;13.418;2023-01-15T12:07:57;98942.00;;;13.70
22828;BMP180;11580;52.562;13.418;2023-01-15T12:10:34;98947.00;;;13.70
22828;BMP180;11580;52.562;13.418;2023-01-15T12:13:30;98925.00;;;13.70
22828;BMP180;11580;52.562;13.418;2023-01-15T12:16:09;98945.00;;;13.70
22828;BMP180;11580;52.562;13.418;2023-01-15T12:18:55;98939.00;;;13.60
22828;BMP180;11580;52.562;13.418;2023-01-15T12:21:55;98945.00;;;13.70
22828;BMP180;11580;52.562;13.418;2023-01-15T12:24:41;98931.00;;;13.60
22828;BMP180;11580;52.562;13.418;2023-01-15T12:27:28;98939.00;;;13.60
22828;BMP180;11580;52.562;13.418;2023-01-15T12:30:12;98925.00;;;13.60
22828;BMP180;11580;52.562;13.418;2023-01-15T12:32:51;98933.00;;;13.60
22828;BMP180;11580;52.562;13.418;2023-01-15T12:35:28;98948.00;;;13.40
22828;BMP180;11580;52.562;13.418;2023-01-15T12:38:02;98922.00;;;13.50
22828;BMP180;11580;52.562;13.418;2023-01-15T12:40:39;98913.00;;;13.50
22828;BMP180;11580;52.562;13.418;2023-01-15T12:43:15;98921.00;;;13.50
22828;BMP180;11580;52.562;13.418;2023-01-15T12:46:01;98924.00;;;13.40
22828;BMP180;11580;52.562;13.418;2023-01-15T12:48:38;98921.00;;;13.40
22828;BMP180;11580;52.562;13.418;2023-01-15T12:51:14;98912.00;;;13.40
22828;BMP180;11580;52.562;13.418;2023-01-15T12:53:48;98917.00;;;13.40
22828;BMP180;11580;52.562;13.418;2023-01-15T12:56:24;98913.00;;;13.40
22828;BMP180;11580;52.562;13.418;2023-01-15T12:59:04;98919.00;;;13.30
22828;BMP180;11580;52.562;13.418;2023-01-15T13:01:41;98913.00;;;13.30
22828;BMP180;11580;52.562;13.418;2023-01-15T13:04:17;98921.00;;;13.30
22828;BMP180;11580;52.562;13.418;2023-01-15T13:06:53;98917.00;;;13.30
22828;BMP180;11580;52.562;13.418;2023-01-15T13:09:34;98914.00;;;13.20
22828;BMP180;11580;52.562;13.418;2023-01-15T13:12:12;98908.00;;;13.20
22828;BMP180;11580;52.562;13.418;2023-01-15T13:14:41;98922.00;;;13.20
22828;BMP180;11580;52.562;13.418;2023-01-15T13:17:23;98923.00;;;13.30
22828;BMP180;11580;52.562;13.418;2023-01-15T13:20:27;98917.00;;;13.20
22828;BMP180;11580;52.562;13.418;2023-01-15T13:23:08;98929.00;;;13.20
22828;BMP180;11580;52.562;13.418;2023-01-15T13:25:58;98926.00;;;13.20
22828;BMP180;11580;52.562;13.418;2023-01-15T13:28:46;98921.00;;;13.10
22828;BMP180;11580;52.562;13.418;2023-01-15T13:31:43;98925.00;;;13.00
22828;BMP180;11580;52.562;13.418;2023-01-15T13:34:25;98918.00;;;12.90
22828;BMP180;11580;52.562;13.418;2023-01-15T13:36:57;98931.00;;;12.80
22828;BMP180;11580;52.562;13.418;2023-01-15T13:39:37;98914.00;;;12.70
22828;BMP180;11580;52.562;13.418;2023-01-15T13:42:18;98923.00;;;12.60
22828;BMP180;11580;52.562;13.418;2023-01-15T13:45:19;98917.00;;;12.50
22828;BMP180;11580;52.562;13.418;2023-01-15T13:47:56;98924.00;;;12.40
22828;BMP180;11580;52.562;13.418;2023-01-15T13:50:29;98914.00;;;12.30
22828;BMP180;11580;52.562;13.418;2023-01-15T13:53:05;98915.00;;;12.20
22828;BMP180;11580;52.562;13.418;2023-01-15T13:55:37;98918.00;;;12.10
22828;BMP180;11580;52.562;13.418;2023-01-15T13:58:23;98930.00;;;12.00
22828;BMP180;11580;52.562;13.418;2023-01-15T14:01:06;98937.00;;;12.00
22828;BMP180;11580;52.562;13.418;2023-01-15T14:03:37;98926.00;;;11.90
22828;BMP180;11580;52.562;13.418;2023-01-15T14:06:07;98939.00;;;11.90
22828;BMP180;11580;52.562;13.418;2023-01-15T14:08:41;98937.00;;;11.90
22828;BMP180;11580;52.562;13.418;2023-01-15T14:11:34;98941.00;;;11.90
22828;BMP180;11580;52.562;13.418;2023-01-15T14:14:34;98947.00;;;11.90
22828;BMP180;11580;52.562;13.418;2023-01-15T14:20:37;98958.00;;;11.80
22828;BMP180;11580;52.562;13.418;2023-01-15T14:23:27;98973.00;;;11.80
22828;BMP180;11580;52.562;13.418;2023-01-15T14:26:10;98985.00;;;11.80
22828;BMP180;11580;52.562;13.418;2023-01-15T14:29:01;98984.00;;;11.80
22828;BMP180;11580;52.562;13.418;2023-01-15T14:31:44;98990.00;;;11.80
22828;BMP180;11580;52.562;13.418;2023-01-15T14:34:19;98991.00;;;11.80
22828;BMP180;11580;52.562;13.418;2023-01-15T14:36:59;98992.00;;;11.80
22828;BMP180;11580;52.562;13.418;2023-01-15T14:39:39;98996.00;;;11.90